createdAt,value
2019-03-26T00:00:29.033Z,101106.34
2019-03-26T00:02:58.008Z,101112.30
2019-03-26T00:05:27.297Z,101107.80
2019-03-26T00:07:56.244Z,101111.48
2019-03-26T00:10:25.146Z,101117.89
2019-03-26T00:12:54.188Z,101117.67
2019-03-26T00:15:24.195Z,101120.06
2019-03-26T00:17:54.603Z,101125.50
2019-03-26T00:20:24.327Z,101130.50
2019-03-26T00:22:53.278Z,101123.38
2019-03-26T00:25:22.160Z,101133.46
2019-03-26T00:27:51.217Z,101134.64
2019-03-26T00:30:21.456Z,101134.64
2019-03-26T00:32:50.439Z,101132.03
2019-03-26T00:35:19.738Z,101129.91
2019-03-26T00:37:48.655Z,101135.12
2019-03-26T00:40:17.732Z,101134.42
2019-03-26T00:42:46.648Z,101136.68
2019-03-26T00:45:16.728Z,101130.29
2019-03-26T00:47:45.814Z,101139.51
2019-03-26T00:50:14.965Z,101142.12
2019-03-26T00:52:43.906Z,101140.81
2019-03-26T00:55:22.573Z,101137.76
2019-03-26T00:57:43.735Z,101140.47
2019-03-26T01:00:13.756Z,101145.58
2019-03-26T01:02:42.949Z,101146.98
2019-03-26T01:05:11.958Z,101152.55
2019-03-26T01:07:40.900Z,101153.50
2019-03-26T01:10:22.220Z,101151.02
2019-03-26T01:12:51.233Z,101158.84
2019-03-26T01:15:20.133Z,101156.36
2019-03-26T01:17:49.509Z,101159.57
2019-03-26T01:20:18.390Z,101164.78
2019-03-26T01:22:47.385Z,101162.53
2019-03-26T01:25:16.531Z,101172.48
2019-03-26T01:27:45.503Z,101173.30
2019-03-26T01:30:14.409Z,101169.88
2019-03-26T01:32:43.440Z,101165.01
2019-03-26T01:35:12.471Z,101169.75
2019-03-26T01:37:42.526Z,101174.48
2019-03-26T01:40:11.680Z,101170.09
2019-03-26T01:42:40.758Z,101166.19
2019-03-26T01:45:09.643Z,101169.27
2019-03-26T01:47:38.549Z,101170.09
2019-03-26T01:50:07.637Z,101174.13
2019-03-26T01:52:36.610Z,101174.01
2019-03-26T01:55:06.896Z,101176.61
2019-03-26T01:57:36.572Z,101173.53
2019-03-26T02:00:06.049Z,101173.88
2019-03-26T02:02:35.246Z,101185.27
2019-03-26T02:05:04.347Z,101182.08
2019-03-26T02:07:33.332Z,101181.22
2019-03-26T02:10:02.313Z,101184.21
2019-03-26T02:12:31.444Z,101189.78
2019-03-26T02:15:00.400Z,101193.21
2019-03-26T02:17:29.375Z,101199.73
2019-03-26T02:19:58.459Z,101200.91
2019-03-26T02:22:27.411Z,101199.60
2019-03-26T02:24:56.550Z,101203.39
2019-03-26T02:27:25.517Z,101208.51
2019-03-26T02:29:54.437Z,101201.61
2019-03-26T02:32:25.855Z,101211.94
2019-03-26T02:34:54.779Z,101203.73
2019-03-26T02:37:23.734Z,101206.83
2019-03-26T02:39:52.978Z,101203.73
2019-03-26T02:42:23.121Z,101211.56
2019-03-26T02:44:52.022Z,101210.25
2019-03-26T02:47:20.960Z,101218.20
2019-03-26T02:49:49.875Z,101212.98
2019-03-26T02:52:19.050Z,101215.59
2019-03-26T02:54:48.060Z,101217.50
2019-03-26T02:57:17.055Z,101217.03
2019-03-26T02:59:45.977Z,101218.33
2019-03-26T03:02:15.249Z,101211.81
2019-03-26T03:04:44.202Z,101215.38
2019-03-26T03:07:13.331Z,101217.63
2019-03-26T03:09:42.342Z,101222.49
2019-03-26T03:12:11.345Z,101222.02
2019-03-26T03:14:40.245Z,101224.63
2019-03-26T03:17:09.196Z,101228.16
2019-03-26T03:19:38.538Z,101229.23
2019-03-26T03:22:07.479Z,101236.58
2019-03-26T03:24:36.408Z,101232.79
2019-03-26T03:27:05.882Z,101235.52
2019-03-26T03:29:34.885Z,101232.91
2019-03-26T03:32:05.174Z,101225.66
2019-03-26T03:34:34.047Z,101230.88
2019-03-26T03:37:03.608Z,101235.39
2019-03-26T03:39:32.513Z,101238.13
2019-03-26T03:42:01.997Z,101243.45
2019-03-26T03:44:31.298Z,101244.98
2019-03-26T03:47:01.676Z,101244.75
2019-03-26T03:49:31.202Z,101247.06
2019-03-26T03:52:03.023Z,101254.66
2019-03-26T03:54:35.245Z,101253.00
2019-03-26T03:57:06.003Z,101255.73
2019-03-26T03:59:35.793Z,101263.55
2019-03-26T04:02:05.114Z,101261.89
2019-03-26T04:04:34.580Z,101262.24
2019-03-26T04:07:03.568Z,101267.45
2019-03-26T04:09:32.480Z,101271.45
2019-03-26T04:12:01.440Z,101269.80
2019-03-26T04:14:30.320Z,101272.88
2019-03-26T04:17:01.026Z,101280.58
2019-03-26T04:19:29.920Z,101280.70
2019-03-26T04:21:58.946Z,101278.36
2019-03-26T04:24:27.843Z,101286.66
2019-03-26T04:26:56.867Z,101291.86
2019-03-26T04:29:25.752Z,101292.22
2019-03-26T04:31:54.769Z,101295.30
2019-03-26T04:34:24.389Z,101292.22
2019-03-26T04:36:53.373Z,101297.42
2019-03-26T04:39:22.289Z,101301.91
2019-03-26T04:41:51.663Z,101301.08
2019-03-26T04:44:20.919Z,101303.59
2019-03-26T04:46:49.845Z,101304.77
2019-03-26T04:49:19.134Z,101307.25
2019-03-26T04:51:48.135Z,101314.13
2019-03-26T04:54:17.785Z,101310.69
2019-03-26T04:56:46.830Z,101310.57
2019-03-26T04:59:15.800Z,101306.30
2019-03-26T05:01:44.732Z,101305.36
2019-03-26T05:04:14.083Z,101307.25
2019-03-26T05:06:43.427Z,101312.82
2019-03-26T05:09:12.385Z,101314.95
2019-03-26T05:11:41.291Z,101314.95
2019-03-26T05:14:10.672Z,101313.30
2019-03-26T05:16:39.608Z,101313.77
2019-03-26T05:19:08.553Z,101315.08
2019-03-26T05:21:37.576Z,101316.02
2019-03-26T05:24:06.756Z,101325.15
2019-03-26T05:26:36.001Z,101317.33
2019-03-26T05:29:04.937Z,101320.77
2019-03-26T05:31:34.238Z,101322.06
2019-03-26T05:34:03.517Z,101322.06
2019-03-26T05:36:33.593Z,101322.54
2019-03-26T05:39:04.439Z,101319.94
2019-03-26T05:41:34.431Z,101321.71
2019-03-26T05:44:03.319Z,101322.54
2019-03-26T05:46:33.800Z,101323.38
2019-03-26T05:49:04.576Z,101327.63
2019-03-26T05:51:33.772Z,101333.44
2019-03-26T05:54:04.397Z,101330.00
2019-03-26T05:56:35.474Z,101332.61
2019-03-26T05:59:04.433Z,101332.97
2019-03-26T06:01:33.438Z,101334.74
2019-03-26T06:04:02.760Z,101336.75
2019-03-26T06:06:33.072Z,101337.70
2019-03-26T06:09:02.209Z,101337.23
2019-03-26T06:11:31.844Z,101345.75
2019-03-26T06:14:01.306Z,101343.98
2019-03-26T06:16:38.357Z,101354.79
2019-03-26T06:19:01.691Z,101351.97
2019-03-26T06:21:30.636Z,101357.06
2019-03-26T06:23:59.609Z,101360.02
2019-03-26T06:26:29.242Z,101362.63
2019-03-26T06:29:01.090Z,101373.20
2019-03-26T06:31:29.454Z,101369.16
2019-03-26T06:33:58.326Z,101376.86
2019-03-26T06:36:27.252Z,101376.66
2019-03-26T06:38:57.621Z,101378.66
2019-03-26T06:41:26.709Z,101379.75
2019-03-26T06:43:55.698Z,101385.67
2019-03-26T06:46:24.658Z,101386.73
2019-03-26T06:48:53.622Z,101381.31
2019-03-26T06:51:22.569Z,101392.80
2019-03-26T06:53:51.451Z,101396.50
2019-03-26T06:56:20.405Z,101396.61
2019-03-26T06:58:49.318Z,101390.44
2019-03-26T07:01:18.603Z,101396.39
2019-03-26T07:03:47.480Z,101396.14
2019-03-26T07:06:16.469Z,101396.16
2019-03-26T07:08:45.372Z,101400.21
2019-03-26T07:11:14.332Z,101401.50
2019-03-26T07:13:43.520Z,101399.50
2019-03-26T07:16:12.607Z,101398.20
2019-03-26T07:18:41.853Z,101394.39
2019-03-26T07:21:10.820Z,101393.09
2019-03-26T07:23:39.720Z,101400.11
2019-03-26T07:26:08.803Z,101401.89
2019-03-26T07:28:39.588Z,101407.47
2019-03-26T07:31:08.726Z,101399.99
2019-03-26T07:33:37.623Z,101397.38
2019-03-26T07:36:06.692Z,101407.31
2019-03-26T07:38:36.038Z,101418.59
2019-03-26T07:41:06.090Z,101422.38
2019-03-26T07:43:34.969Z,101422.25
2019-03-26T07:46:04.027Z,101416.80
2019-03-26T07:48:33.857Z,101424.85
2019-03-26T07:51:02.779Z,101420.31
2019-03-26T07:53:31.695Z,101422.79
2019-03-26T07:56:01.550Z,101415.50
2019-03-26T07:58:33.201Z,101414.43
2019-03-26T08:01:03.228Z,101418.23
2019-03-26T08:03:33.479Z,101416.78
2019-03-26T08:06:02.851Z,101419.38
2019-03-26T08:08:32.929Z,101418.74
2019-03-26T08:11:03.916Z,101410.50
2019-03-26T08:13:34.112Z,101408.10
2019-03-26T08:16:04.142Z,101403.27
2019-03-26T08:18:34.514Z,101399.63
2019-03-26T08:21:03.768Z,101398.30
2019-03-26T08:23:32.835Z,101397.86
2019-03-26T08:26:04.761Z,101392.27
2019-03-26T08:28:35.539Z,101387.52
2019-03-26T08:31:04.603Z,101402.13
2019-03-26T08:33:33.584Z,101405.80
2019-03-26T08:36:02.515Z,101401.68
2019-03-26T08:38:33.506Z,101397.70
2019-03-26T08:41:02.705Z,101411.48
2019-03-26T08:43:31.637Z,101410.08
2019-03-26T08:46:00.615Z,101415.64
2019-03-26T08:48:30.652Z,101421.33
2019-03-26T08:50:59.577Z,101423.05
2019-03-26T08:53:28.502Z,101422.63
2019-03-26T08:55:57.403Z,101431.07
2019-03-26T08:58:26.506Z,101427.92
2019-03-26T09:01:20.534Z,101437.95
2019-03-26T15:53:10.832Z,101265.45
2019-03-26T15:55:40.250Z,101264.51
2019-03-26T15:58:09.493Z,101265.52
2019-03-26T16:00:39.790Z,101261.75
2019-03-26T16:03:09.249Z,101258.28
2019-03-26T16:05:39.336Z,101260.11
2019-03-26T16:08:08.251Z,101260.59
2019-03-26T16:10:38.221Z,101257.95
2019-03-26T16:13:07.376Z,101252.38
2019-03-26T16:15:44.338Z,101253.20
2019-03-26T16:18:07.312Z,101260.45
2019-03-26T16:20:36.944Z,101259.25
2019-03-26T16:23:07.016Z,101259.73
2019-03-26T16:25:35.997Z,101255.61
2019-03-26T16:28:04.973Z,101253.45
2019-03-26T16:30:36.542Z,101255.60
2019-03-26T16:33:06.779Z,101256.91
2019-03-26T16:35:35.679Z,101252.59
2019-03-26T16:38:04.881Z,101251.59
2019-03-26T16:40:34.051Z,101257.50
2019-03-26T16:43:02.915Z,101258.16
2019-03-26T16:45:31.904Z,101249.41
2019-03-26T16:48:02.467Z,101252.69
2019-03-26T16:50:31.475Z,101259.11
2019-03-26T16:53:00.396Z,101263.85
2019-03-26T16:55:29.866Z,101262.05
2019-03-26T16:57:58.871Z,101261.52
2019-03-26T17:00:33.024Z,101259.02
2019-03-26T17:03:02.337Z,101258.20
2019-03-26T17:05:32.493Z,101251.72
2019-03-26T17:08:01.921Z,101255.64
2019-03-26T17:10:30.857Z,101250.67
2019-03-26T17:13:00.144Z,101255.90
2019-03-26T17:15:29.358Z,101256.52
2019-03-26T17:17:58.703Z,101257.96
2019-03-26T17:20:27.723Z,101269.11
2019-03-26T17:22:56.876Z,101271.20
2019-03-26T17:25:26.866Z,101276.73
2019-03-26T17:27:55.850Z,101281.95
2019-03-26T17:30:26.501Z,101280.91
2019-03-26T17:32:55.867Z,101284.14
2019-03-26T17:35:25.848Z,101286.71
2019-03-26T17:38:00.135Z,101286.48
2019-03-26T17:40:27.063Z,101290.70
2019-03-26T17:42:56.443Z,101291.30
2019-03-26T17:45:25.487Z,101291.56
2019-03-26T17:47:54.752Z,101285.25
2019-03-26T17:50:23.785Z,101284.04
2019-03-26T17:52:52.881Z,101288.57
2019-03-26T17:55:22.079Z,101294.41
2019-03-26T17:57:51.419Z,101285.81
2019-03-26T18:00:44.695Z,101291.61
2019-03-26T18:03:25.611Z,101286.95
2019-03-26T18:05:45.180Z,101298.03
2019-03-26T18:08:15.625Z,101297.13
2019-03-26T18:10:44.693Z,101302.61
2019-03-26T18:13:13.767Z,101302.85
2019-03-26T18:15:42.812Z,101313.44
2019-03-26T18:18:12.012Z,101317.46
2019-03-26T18:20:43.551Z,101318.52
2019-03-26T18:23:12.594Z,101319.57
2019-03-26T18:25:42.500Z,101329.81
2019-03-26T18:28:11.399Z,101335.98
2019-03-26T18:30:41.551Z,101329.99
2019-03-26T18:33:10.655Z,101329.39
2019-03-26T18:35:39.974Z,101328.30
2019-03-26T18:38:09.081Z,101332.30
2019-03-26T18:40:39.585Z,101340.09
2019-03-26T18:43:08.885Z,101333.12
2019-03-26T18:45:37.852Z,101343.22
2019-03-26T18:48:06.877Z,101339.20
2019-03-26T18:50:36.301Z,101342.12
2019-03-26T18:53:07.163Z,101343.34
2019-03-26T18:56:25.465Z,101348.02
2019-03-26T18:58:55.058Z,101344.86
2019-03-26T19:01:24.120Z,101344.44
2019-03-26T19:03:53.249Z,101346.86
2019-03-26T19:06:24.270Z,101346.59
2019-03-26T19:08:53.388Z,101352.95
2019-03-26T19:11:24.100Z,101349.17
2019-03-26T19:13:53.195Z,101355.97
2019-03-26T19:16:24.711Z,101357.28
2019-03-26T19:18:54.203Z,101357.96
2019-03-26T19:21:23.428Z,101364.95
2019-03-26T19:24:03.348Z,101367.08
2019-03-26T19:26:23.285Z,101362.98
2019-03-26T19:28:52.342Z,101363.86
2019-03-26T19:31:21.327Z,101362.94
2019-03-26T19:33:50.360Z,101367.48
2019-03-26T19:36:19.514Z,101371.20
2019-03-26T19:38:48.750Z,101373.63
2019-03-26T19:41:17.732Z,101376.18
2019-03-26T19:43:46.853Z,101379.04
2019-03-26T19:46:15.913Z,101373.80
2019-03-26T19:48:45.768Z,101380.73
2019-03-26T19:51:14.829Z,101379.28
2019-03-26T19:53:43.966Z,101381.89
2019-03-26T19:56:13.285Z,101383.93
2019-03-26T19:58:42.505Z,101380.77
2019-03-26T20:01:11.557Z,101386.37
2019-03-26T20:03:40.451Z,101384.62
2019-03-26T20:06:13.617Z,101389.88
2019-03-26T20:08:42.012Z,101389.81
2019-03-26T20:11:11.186Z,101393.07
2019-03-26T20:13:40.316Z,101388.83
2019-03-26T20:16:09.286Z,101396.09
2019-03-26T20:18:39.633Z,101392.09
2019-03-26T20:21:08.792Z,101395.07
2019-03-26T20:23:38.137Z,101399.13
2019-03-26T20:26:07.386Z,101405.69
2019-03-26T20:28:36.468Z,101409.28
2019-03-26T20:31:07.492Z,101408.82
2019-03-26T20:33:36.679Z,101411.70
2019-03-26T20:36:05.586Z,101409.55
2019-03-26T20:38:34.930Z,101417.28
2019-03-26T20:41:04.125Z,101418.23
2019-03-26T20:43:37.596Z,101413.27
2019-03-26T20:46:05.482Z,101414.33
2019-03-26T20:48:34.772Z,101421.48
2019-03-26T20:51:03.693Z,101412.34
2019-03-26T20:53:32.791Z,101417.35
2019-03-26T20:56:02.370Z,101417.83
2019-03-26T20:58:32.283Z,101412.95
2019-03-26T21:01:01.374Z,101414.48
2019-03-26T21:03:32.232Z,101414.61
2019-03-26T21:06:02.142Z,101406.90
2019-03-26T21:08:31.556Z,101415.09
2019-03-26T21:11:00.665Z,101423.06
2019-03-26T21:13:29.853Z,101418.09
2019-03-26T21:15:59.024Z,101409.31
2019-03-26T21:18:28.266Z,101412.41
2019-03-26T21:20:57.636Z,101412.75
2019-03-26T21:23:27.363Z,101407.05
2019-03-26T21:25:56.588Z,101414.80
2019-03-26T21:28:26.124Z,101418.46
2019-03-26T21:30:55.103Z,101413.84
2019-03-26T21:33:24.159Z,101413.49
2019-03-26T21:35:53.451Z,101422.16
2019-03-26T21:38:28.516Z,101424.30
2019-03-26T21:40:57.630Z,101422.77
2019-03-26T21:43:26.672Z,101421.69
2019-03-26T21:45:56.097Z,101420.25
2019-03-26T21:48:25.246Z,101422.77
2019-03-26T21:50:54.597Z,101425.98
2019-03-26T21:53:23.567Z,101425.85
2019-03-26T21:56:05.699Z,101426.67
2019-03-26T21:58:24.031Z,101419.31
2019-03-26T22:00:53.136Z,101420.87
2019-03-26T22:03:22.585Z,101421.94
2019-03-26T22:05:51.628Z,101432.84
2019-03-26T22:08:20.903Z,101425.71
2019-03-26T22:10:50.189Z,101436.26
2019-03-26T22:13:19.301Z,101434.49
2019-03-26T22:15:48.364Z,101430.92
2019-03-26T22:18:17.369Z,101430.42
2019-03-26T22:20:46.444Z,101429.11
2019-03-26T22:23:16.511Z,101433.27
2019-03-26T22:25:45.711Z,101435.64
2019-03-26T22:28:15.500Z,101433.86
2019-03-26T22:30:46.458Z,101434.42
2019-03-26T22:33:16.236Z,101438.81
2019-03-26T22:35:45.258Z,101443.80
2019-03-26T22:38:14.345Z,101440.00
2019-03-26T22:40:44.325Z,101445.31
2019-03-26T22:43:13.485Z,101446.03
2019-03-26T22:45:42.794Z,101444.72
2019-03-26T22:48:11.863Z,101450.03
2019-03-26T22:50:42.266Z,101443.61
2019-03-26T22:53:11.621Z,101444.64
2019-03-26T22:55:40.911Z,101452.59
2019-03-26T22:58:13.086Z,101446.19
2019-03-26T23:00:43.433Z,101454.95
2019-03-26T23:03:14.443Z,101451.25
2019-03-26T23:05:43.448Z,101458.02
2019-03-26T23:08:12.721Z,101454.87
2019-03-26T23:10:43.103Z,101461.94
2019-03-26T23:13:12.312Z,101456.34
2019-03-26T23:15:41.341Z,101452.04
2019-03-26T23:18:10.558Z,101454.88
2019-03-26T23:20:41.077Z,101455.55
2019-03-26T23:23:10.429Z,101454.57
2019-03-26T23:25:39.463Z,101461.79
2019-03-26T23:28:08.758Z,101461.75
2019-03-26T23:30:39.303Z,101457.59
2019-03-26T23:33:08.699Z,101453.06
2019-03-26T23:35:37.647Z,101452.94
2019-03-26T23:38:06.581Z,101456.20
2019-03-26T23:40:35.882Z,101452.62
2019-03-26T23:43:04.862Z,101443.73
2019-03-26T23:45:35.035Z,101440.14
2019-03-26T23:48:05.790Z,101447.35
2019-03-26T23:50:35.156Z,101445.41
2019-03-26T23:53:04.197Z,101453.09
2019-03-26T23:55:33.159Z,101449.61
2019-03-26T23:58:02.137Z,101449.92
